Lagrange, Maine
Current Conditions -  °F | °C
As of 6:53 AM on Monday 22 Dec 2014 (Local Time) from KBGR Reporting Station
Light Fog Light Fog  
Wind Chill: 26°   Ceiling: 5500
Heat Index: 26°   Visibility: 10mi
Dew Point: 24°   Wind: 3mph
Humidity: 92%   Direction: 350°N
Pressure: 30.43"   Gusts: NA
Location:  45.17°N, 68.84°W
Report Text: KBGR 221153Z 35003KT 10SM BCFG OVC055 M03/M04 A3043 RMK AO2 SLP307 4/002 60000 T10331044 11028 21039 53008
Loading
Personal Weather Stations






























Interactive Weather Map New forecast layout! Learn more

10-Day Weather Forecast

Advertisements
Track Severe Weather on mobile